• Join FlightAware (Why Join?)
  • Login
  • US Flag 
06:57AM EDT


 

Airport Tracker/Info


-or-


 

Live Flight TrackerFlight Track Log ✈ UAL4536 ✈ 29-Apr-2013 ✈ KIAH - KCLT

Flight Track Log - Related Links

Times and Time Zones

All times are in EDT time to prevent confusion due to time zone crossing. See the UAL4536 flight status page for this flight to view local times or setup timezone preferences in your user account.

Time Position Orientation Groundspeed Altitude Reporting Facility
EDT Latitude Longitude Course Direction KTS MPH feet Rate Location/Type
01:59PM 29.9614 -95.3411 90° East 164 189 500  Level Houston Center
01:59PM 29.9522 -95.3303 134° Southeast 177 204 1,100 1,500 Climbing Houston Center
02:00PM 29.9353 -95.2622 106° East 240 276 2,600 1,380 Climbing Houston Center
02:01PM 29.9342 -95.2533 98° East 219 252 2,900 2,160 Climbing Houston Center
02:01PM 29.9342 -95.1828 90° East 255 293 4,800 1,980 Climbing Houston Center
02:02PM 29.9350 -95.1733 84° East 255 293 5,000 1,980 Climbing Houston Center
02:03PM 29.9834 -94.8117 90° East  Level FlightAware Approximate
02:03PM 29.9417 -95.0919 85° East 255 293 7,400  Level Houston Center
02:04PM 29.9833 -94.6813 90° East  Level FlightAware Approximate
02:04PM 29.9517 -94.9872 84° East 271 312 9,400  Level Houston Center
02:05PM 29.9600 -94.8900 84° East 298 343 10,600 960 Climbing Houston Center
02:06PM 29.9700 -94.7794 84° East 342 394 11,400 960 Climbing Houston Center
02:07PM 29.9797 -94.6636 84° East 359 413 12,700 1,260 Climbing Houston Center
02:08PM 29.9883 -94.5469 85° East 365 420 14,100 1,200 Climbing Houston Center
02:09PM 29.9925 -94.4281 88° East 365 420 15,300 1,020 Climbing Houston Center
02:10PM 29.9972 -94.3067 87° East 377 434 16,300 1,080 Climbing Houston Center
02:11PM 30.0147 -94.1597 82° East 390 449 17,600 1,080 Climbing Houston Center
02:12PM 30.0297 -94.0369 82° East 389 448 18,600 960 Climbing Houston Center
02:13PM 30.0450 -93.9114 82° East 394 453 19,700 960 Climbing Houston Center
02:14PM 30.0608 -93.7847 82° East 399 459 20,700 960 Climbing Houston Center
02:15PM 30.0761 -93.6569 82° East 404 465 21,700 1,080 Climbing Houston Center
02:16PM 30.0939 -93.5033 82° East 408 470 23,000 1,080 Climbing Houston Center
02:17PM 30.1089 -93.3736 82° East 411 473 24,000 960 Climbing Houston Center
02:18PM 30.1244 -93.2431 82° East 414 476 25,000 960 Climbing Houston Center
02:19PM 30.1394 -93.1111 82° East 417 480 26,100 1,080 Climbing Houston Center
02:20PM 30.1697 -92.9581 77° East 411 473 27,300 1,020 Climbing Houston Center
02:21PM 30.1942 -92.8319 77° East 406 467 28,300 960 Climbing Houston Center
02:22PM 30.2197 -92.7064 77° East 404 465 29,400 960 Climbing Houston Center
02:23PM 30.2431 -92.5794 78° East 405 466 30,400 960 Climbing Houston Center
02:24PM 30.2672 -92.4542 77° East 401 461 31,400 1,020 Climbing Houston Center
02:25PM 30.2950 -92.3083 78° East 406 467 32,600 1,080 Climbing Houston Center
02:27PM 30.3197 -92.1819 77° East 405 466 33,700 960 Climbing Houston Center
02:28PM 30.3433 -92.0569 78° East 401 461 34,700 600 Climbing Houston Center
02:29PM 30.3678 -91.9314 77° East 401 461 35,000 120 Climbing Houston Center
02:30PM 30.3967 -91.7717 78° East 422 486 35,000  Level Houston Center
02:31PM 30.4219 -91.6433 77° East 444 511 35,000  Level Houston Center
02:32PM 30.4486 -91.4978 78° East 461 531 35,000 -60 Level Houston Center
02:33PM 30.4758 -91.3472 78° East 476 548 34,900  Descending Houston Center
02:34PM 30.5431 -91.1756 66° East 490 564 35,000  Climbing Houston Center
02:35PM 30.6081 -91.0386 61° Northeast 486 559 35,000 -60 Level Houston Center
02:36PM 30.6731 -90.9019 61° Northeast 485 558 34,900  Descending Houston Center
02:37PM 30.7425 -90.7700 58° Northeast 478 550 35,000  Climbing Houston Center
02:38PM 30.8378 -90.6589 45° Northeast 483 556 35,000 -60 Level Houston Center
02:39PM 30.9297 -90.5489 46° Northeast 475 547 34,900  Descending Houston Center
02:40PM 31.0414 -90.4172 45° Northeast 474 545 35,000  Climbing Houston Center
02:41PM 31.1353 -90.3069 45° Northeast 478 550 34,900  Descending Houston Center
02:42PM 31.2283 -90.1969 45° Northeast 475 547 35,000  Climbing Houston Center
02:43PM 31.3233 -90.0856 45° Northeast 475 547 35,000  Level Houston Center
02:44PM 31.4133 -89.9758 46° Northeast 473 544 35,000  Level Houston Center
02:45PM 31.5061 -89.8658 45° Northeast 473 544 35,000 -60 Level Houston Center
02:46PM 31.5981 -89.7544 46° Northeast 474 545 34,900  Descending Houston Center
02:47PM 31.6514 -89.6886 46° Northeast 475 547 35,000 60 Climbing Memphis Center
02:47PM 31.7092 -89.6225 44° Northeast 473 544 35,000  Level Houston Center
02:48PM 31.7925 -89.5206 46° Northeast 475 547 35,000  Level Houston Center
02:49PM 31.8822 -89.4117 46° Northeast 467 537 35,000  Level Houston Center
02:50PM 31.9350 -89.3464 46° Northeast 469 540 35,000  Level Memphis Center
02:51PM 32.0258 -89.2375 45° Northeast 463 533 35,000  Level Memphis Center
02:52PM 32.1147 -89.1286 46° Northeast 458 527 35,000  Level Memphis Center
02:53PM 32.2053 -89.0192 46° Northeast 458 527 35,000  Level Memphis Center
02:54PM 32.2961 -88.9072 46° Northeast 458 527 35,000  Level Memphis Center
02:55PM 32.3822 -88.7953 48° Northeast 458 527 35,000  Level Memphis Center
02:56PM 32.4453 -88.6661 60° Northeast 458 527 35,000  Level Memphis Center
02:57PM 32.5081 -88.5294 61° Northeast 463 533 35,000  Level Memphis Center
02:58PM 32.5728 -88.3925 61° Northeast 468 539 35,000  Level Memphis Center
03:00PM 32.6883 -88.1456 61° Northeast 474 545 35,000  Level Atlanta Center
03:01PM 32.7450 -88.0125 63° Northeast 479 551 35,000  Level Atlanta Center
03:02PM 32.8122 -87.8672 61° Northeast 474 545 35,000  Level Atlanta Center
03:03PM 32.8769 -87.7314 60° Northeast 469 540 35,000  Level Atlanta Center
03:04PM 32.9353 -87.5931 63° Northeast 469 540 35,000  Level Atlanta Center
03:05PM 32.9750 -87.4411 73° East 464 534 35,000  Level Atlanta Center
03:06PM 33.0103 -87.2914 74° East 464 534 35,000  Level Atlanta Center
03:07PM 33.0439 -87.1264 76° East 470 541 35,000  Level Atlanta Center
03:08PM 33.0742 -86.9961 74° East 463 533 35,000  Level Atlanta Center
03:09PM 33.1089 -86.8486 74° East 458 527 35,000  Level Atlanta Center
03:10PM 33.1436 -86.6958 75° East 464 534 35,000  Level Atlanta Center
03:11PM 33.1825 -86.5308 74° East 464 534 35,000  Level Atlanta Center
03:12PM 33.2103 -86.3925 76° East 469 540 35,000  Level Atlanta Center
03:13PM 33.2444 -86.2444 75° East 464 534 35,000  Level Atlanta Center
03:14PM 33.2783 -86.0961 75° East 464 534 35,000  Level Atlanta Center
03:15PM 33.3100 -85.9453 76° East 469 540 35,000  Level Atlanta Center
03:16PM 33.3458 -85.7769 76° East 469 540 35,000  Level Atlanta Center
03:17PM 33.3747 -85.6508 75° East 455 524 35,000  Level Atlanta Center
03:18PM 33.4078 -85.4972 76° East 455 524 35,000  Level Atlanta Center
03:19PM 33.4408 -85.3458 75° East 461 531 35,000  Level Atlanta Center
03:20PM 33.4739 -85.1794 77° East 470 541 35,000  Level Atlanta Center
03:21PM 33.5064 -85.0228 76° East 470 541 35,000  Level Atlanta Center
03:22PM 33.5367 -84.8711 76° East 470 541 35,000  Level Atlanta Center
03:23PM 33.5711 -84.7169 75° East 470 541 35,000  Level Atlanta Center
03:24PM 33.6033 -84.5600 76° East 470 541 35,000  Level Atlanta Center
03:25PM 33.6289 -84.4256 77° East 470 541 35,000  Level Atlanta Center
03:26PM 33.6708 -84.2733 72° East 470 541 35,000  Level Atlanta Center
03:27PM 33.7211 -84.1036 70° East 480 552 35,000  Level Atlanta Center
03:28PM 33.7650 -83.9539 71° East 485 558 35,000  Level Atlanta Center
03:29PM 33.8067 -83.8014 72° East 485 558 35,000 -60 Level Atlanta Center
03:30PM 33.8500 -83.6486 71° East 485 558 34,900 -540 Descending Atlanta Center
03:31PM 33.8892 -83.4983 73° East 480 552 34,000 -1,200 Descending Atlanta Center
03:32PM 33.9322 -83.3453 71° East 480 552 32,600 -1,320 Descending Atlanta Center
03:33PM 33.9772 -83.1922 70° East 485 558 31,400 -1,260 Descending Atlanta Center
03:34PM 34.0197 -83.0339 72° East 485 558 30,100 -1,440 Descending Atlanta Center
03:35PM 34.0622 -82.8728 72° East 490 564 28,600 -1,560 Descending Atlanta Center
03:36PM 34.1064 -82.7142 71° East 495 570 27,000 -1,440 Descending Atlanta Center
03:37PM 34.1486 -82.5728 70° East 495 570 25,800 -1,260 Descending Atlanta Center
03:38PM 34.2200 -82.4411 57° Northeast 480 552 24,500 -900 Descending Atlanta Center
03:39PM 34.2975 -82.3039 56° Northeast 480 552 24,000 -600 Descending Atlanta Center
03:40PM 34.3769 -82.1714 54° Northeast 485 558 23,300 -1,020 Descending Atlanta Center
03:41PM 34.4500 -82.0411 56° Northeast 480 552 22,000 -1,860 Descending Atlanta Center
03:42PM 34.5189 -81.9186 56° Northeast 464 534 19,600 -2,520 Descending Atlanta Center
03:43PM 34.5878 -81.8033 54° Northeast 439 505 17,000 -2,940 Descending Atlanta Center
03:44PM 34.6586 -81.6778 56° Northeast 414 476 13,800 -2,700 Descending Atlanta Center
03:44PM 34.7089 -81.5903 55° Northeast 399 459 12,300 -1,320 Descending Atlanta Center
03:45PM 34.7392 -81.5389 54° Northeast 352 405 12,000 -300 Descending Atlanta Center
03:46PM 34.7800 -81.4897 45° Northeast 340 391 12,000  Level Atlanta Center
03:46PM 34.8022 -81.4536 53° Northeast 298 343 12,000 -420 Level Atlanta Center
03:47PM 34.8328 -81.4197 42° Northeast 313 360 11,600 -1,500 Descending Atlanta Center
03:47PM 34.8611 -81.3783 50° Northeast 306 352 10,500 -2,040 Descending Atlanta Center
03:48PM 34.8894 -81.3444 44° Northeast 307 353 9,600 -1,380 Descending Atlanta Center
03:48PM 34.9219 -81.3003 48° Northeast 302 348 9,000 -600 Descending Atlanta Center
03:49PM 34.9464 -81.2717 44° Northeast 301 346 9,000  Level Atlanta Center
03:49PM 34.9808 -81.2250 48° Northeast 299 344 9,000  Level Atlanta Center
03:50PM 35.0053 -81.1961 44° Northeast 301 346 9,000  Level Atlanta Center
03:50PM 35.0436 -81.1442 48° Northeast 304 350 9,000  Level Atlanta Center
03:51PM 35.0619 -81.1206 47° Northeast 301 346 9,000  Level Atlanta Center
03:51PM 35.1044 -81.0761 41° Northeast 302 348 9,000  Level Atlanta Center
03:52PM 35.1314 -81.0675 15° North 301 346 9,000 -840 Level Atlanta Center
03:52PM 35.1836 -81.0681 360° North 284 327 8,200 -1,440 Descending Atlanta Center
03:53PM 35.2089 -81.0722 352° North 265 305 7,600 -1,800 Descending Atlanta Center
03:53PM 35.2631 -81.0728 360° North 275 316 6,400 -1,680 Descending Atlanta Center
03:54PM 35.3361 -81.0778 357° North 257 296 5,000 -1,380 Descending Atlanta Center
03:55PM 35.3572 -81.0033 71° East 247 284 3,500 -1,200 Descending Atlanta Center
03:56PM 35.3061 -80.9619 147° Southeast 207 238 2,500 -1,020 Descending Atlanta Center
03:57PM 35.2622 -80.9583 176° South 139 160 1,500 -1,020 Descending Atlanta Center
03:59PM 35.2137 -80.9491 158° South  Level Estimated
04:06PM 35.2137 -80.9491 158° South  Level Estimated
04:07PM 35.2137 -80.9491 158° South  Level Estimated